Time;durP1;ratioP1;P1;durP2;ratioP2;P2;SDS_P1;SDS_P2;PMS_P1;PMS_P2;Temp;Humidity;BMP_temperature;BMP_pressure;BME280_temperature;BME280_humidity;BME280_pressure;Samples;Min_cycle;Max_cycle;Signal;HPM_P1;HPM_P2
2022/11/11 00:01:58;;;;;;;5.00;2.03;;;;;;;9.15;53.38;101771.88;10527939;28;20203;-87
2022/11/11 00:07:38;;;;;;;3.77;1.80;;;;;;;9.13;52.80;101795.84;10501386;28;20603;-87
2022/11/11 00:13:19;;;;;;;6.67;1.80;;;;;;;8.87;53.48;101814.81;10521772;28;20195;-86
2022/11/11 00:25:04;;;;;;;7.40;2.20;;;;;;;7.63;57.76;101794.81;10515871;28;20647;-85
2022/11/11 00:30:45;;;;;;;2.97;1.93;;;;;;;8.02;57.19;101777.38;10525577;28;20214;-86
2022/11/11 00:36:25;;;;;;;5.97;2.33;;;;;;;8.07;56.94;101783.00;10522117;28;20191;-85
2022/11/11 00:42:06;;;;;;;4.07;2.03;;;;;;;7.78;57.81;101787.53;10502198;28;20219;-85
2022/11/11 00:53:46;;;;;;;5.93;2.43;;;;;;;7.85;57.11;101774.88;10505284;28;20191;-85
2022/11/11 00:59:27;;;;;;;5.80;2.27;;;;;;;7.91;57.14;101767.28;10540693;28;20198;-85
2022/11/11 01:05:07;;;;;;;3.60;1.77;;;;;;;8.42;55.92;101785.72;10533542;28;20223;-85
2022/11/11 01:10:48;;;;;;;4.63;2.17;;;;;;;8.15;56.33;101784.38;10515655;28;20607;-86
2022/11/11 01:16:28;;;;;;;6.07;2.50;;;;;;;8.01;56.96;101790.56;10505002;28;20734;-86
2022/11/11 01:22:09;;;;;;;5.70;2.50;;;;;;;7.87;56.67;101786.66;10526961;28;20214;-84
2022/11/11 01:27:49;;;;;;;3.40;2.07;;;;;;;7.69;56.85;101792.88;10510855;28;20682;-87
2022/11/11 01:33:30;;;;;;;3.80;2.47;;;;;;;8.28;55.98;101793.06;10491137;28;20211;-86
2022/11/11 01:39:11;;;;;;;4.27;2.10;;;;;;;7.98;56.56;101798.72;10521412;28;20188;-87
2022/11/11 01:44:52;;;;;;;2.07;1.50;;;;;;;8.14;55.75;101803.19;10507399;28;20628;-86
2022/11/11 01:50:32;;;;;;;5.77;2.17;;;;;;;8.10;56.11;101804.88;10508482;28;20187;-86
2022/11/11 01:56:13;;;;;;;5.23;2.10;;;;;;;7.38;58.15;101800.38;10499037;28;20191;-87
2022/11/11 02:01:53;;;;;;;5.70;1.83;;;;;;;7.59;57.18;101798.44;10511288;28;20215;-87
2022/11/11 02:07:35;;;;;;;3.17;1.40;;;;;;;8.04;55.47;101806.03;10523827;28;20202;-86
2022/11/11 02:19:17;;;;;;;7.03;1.50;;;;;;;7.66;56.49;101810.25;10538232;28;20199;-86
2022/11/11 02:24:58;;;;;;;3.23;1.30;;;;;;;8.15;54.94;101812.47;10515039;28;20218;-87
2022/11/11 02:30:39;;;;;;;4.43;1.40;;;;;;;8.53;53.67;101817.44;10493793;28;20191;-87
2022/11/11 02:36:20;;;;;;;2.67;1.60;;;;;;;8.25;54.42;101823.66;10525257;28;20218;-87
2022/11/11 02:42:08;;;;;;;4.27;1.87;;;;;;;7.96;54.99;101829.06;10550415;28;20210;-85
2022/11/11 02:47:49;;;;;;;3.17;1.40;;;;;;;8.00;54.53;101832.97;10549854;28;20186;-87
2022/11/11 02:53:29;;;;;;;5.87;1.87;;;;;;;8.24;54.21;101825.63;10552406;28;20183;-87
2022/11/11 02:59:11;;;;;;;2.33;1.60;;;;;;;7.70;56.02;101815.03;10548582;28;20198;-86
2022/11/11 03:04:54;;;;;;;4.27;1.70;;;;;;;7.26;57.09;101805.41;10538052;28;20210;-87
2022/11/11 03:10:36;;;;;;;2.60;1.60;;;;;;;8.08;54.43;101813.63;10551183;28;20194;-86
2022/11/11 03:22:19;;;;;;;4.50;1.70;;;;;;;7.54;56.12;101802.09;10552701;28;20207;-87
2022/11/11 03:27:59;;;;;;;3.73;1.60;;;;;;;7.54;56.40;101802.09;10548414;28;20206;-85
2022/11/11 03:33:40;;;;;;;4.27;1.70;;;;;;;7.60;55.41;101792.56;10547936;28;20222;-87
2022/11/11 03:39:20;;;;;;;5.40;1.93;;;;;;;7.45;55.71;101798.13;10533704;28;20206;-88
2022/11/11 03:45:01;;;;;;;6.07;1.90;;;;;;;7.71;55.38;101785.81;10551607;28;20210;-87
2022/11/11 03:50:41;;;;;;;3.07;1.50;;;;;;;7.60;55.87;101795.38;10547778;28;20190;-86
2022/11/11 03:56:22;;;;;;;4.80;1.63;;;;;;;7.86;55.32;101796.19;10537718;28;20183;-86
2022/11/11 04:26:02;;;;;;;3.90;1.47;;;;;;;8.02;53.82;101825.97;10547016;28;20626;-86
2022/11/11 04:37:50;;;;;;;2.77;1.67;;;;;;;7.97;53.44;101822.31;10540139;28;20468;-86
2022/11/11 04:43:31;;;;;;;4.03;1.43;;;;;;;7.50;54.78;101809.38;10544134;28;20210;-87
2022/11/11 04:49:12;;;;;;;3.57;1.50;;;;;;;7.40;55.29;101802.91;10546009;28;20186;-86
2022/11/11 05:00:52;;;;;;;4.17;1.70;;;;;;;7.29;55.22;101799.25;10553204;28;20203;-88
2022/11/11 05:12:32;;;;;;;3.20;1.43;;;;;;;7.20;55.01;101800.88;10549669;28;20187;-86
2022/11/11 05:30:14;;;;;;;2.73;1.30;;;;;;;7.30;55.31;101812.16;10355840;28;20202;-87
2022/11/11 05:35:54;;;;;;;4.07;1.43;;;;;;;7.57;54.64;101807.19;10336493;28;20460;-83
2022/11/11 05:41:35;;;;;;;3.07;1.60;;;;;;;7.51;54.78;101807.41;10327528;28;20197;-83
2022/11/11 05:47:15;;;;;;;2.43;1.63;;;;;;;7.68;53.56;101820.09;10331635;28;20202;-82
2022/11/11 05:52:56;;;;;;;4.93;1.37;;;;;;;8.18;52.65;101823.13;10344914;28;20201;-83
2022/11/11 05:58:36;;;;;;;5.97;1.80;;;;;;;7.94;53.04;101829.34;10318382;28;20206;-82
2022/11/11 06:04:17;;;;;;;4.90;2.03;;;;;;;7.61;53.96;101841.94;10316348;28;20213;-83
2022/11/11 06:10:29;;;;;;;4.17;1.50;;;;;;;7.61;54.02;101847.56;10344479;28;20206;-83
2022/11/11 06:15:59;;;;;;;3.27;1.40;;;;;;;7.42;54.47;101854.81;10340349;28;20190;-82
2022/11/11 06:21:59;;;;;;;5.13;2.30;;;;;;;7.46;54.75;101872.75;10315337;28;20238;-82
2022/11/11 06:27:40;;;;;;;4.83;2.10;;;;;;;7.72;54.19;101885.72;10308388;28;20186;-81
2022/11/11 06:33:20;;;;;;;5.90;1.90;;;;;;;7.58;54.19;101886.59;10323028;28;20190;-81
2022/11/11 06:39:01;;;;;;;4.03;1.70;;;;;;;7.50;54.48;101899.13;10302083;28;20472;-83
2022/11/11 06:44:42;;;;;;;4.93;1.63;;;;;;;7.67;54.17;101896.97;10286650;28;20221;-82
2022/11/11 06:50:23;;;;;;;2.77;1.63;;;;;;;8.08;53.25;101897.00;10295462;28;20210;-82
2022/11/11 06:56:03;;;;;;;2.87;1.70;;;;;;;7.33;54.92;101901.31;10327238;28;20194;-82
2022/11/11 07:01:44;;;;;;;3.67;2.07;;;;;;;7.56;54.26;101903.69;10295086;28;20614;-82
2022/11/11 07:07:25;;;;;;;2.43;1.63;;;;;;;7.48;54.38;101912.59;10319213;28;20210;-82
2022/11/11 07:13:06;;;;;;;3.80;2.23;;;;;;;7.90;53.92;101929.28;10310238;28;20202;-82
2022/11/11 07:18:46;;;;;;;8.20;2.13;;;;;;;7.89;53.49;101923.94;10296392;28;20463;-83
2022/11/11 07:24:27;;;;;;;3.93;1.47;;;;;;;7.23;55.52;101923.72;10269645;28;20227;-82
2022/11/11 07:30:08;;;;;;;3.63;1.90;;;;;;;7.21;55.64;101909.13;10271871;28;20191;-82
2022/11/11 07:35:49;;;;;;;4.83;1.93;;;;;;;7.58;54.33;101909.84;10274790;28;20190;-82
2022/11/11 07:41:30;;;;;;;3.80;1.70;;;;;;;7.44;54.19;101914.28;10272071;28;20195;-82
2022/11/11 07:47:10;;;;;;;3.67;1.47;;;;;;;7.54;53.47;101914.31;10283528;28;20199;-82
2022/11/11 07:52:51;;;;;;;2.10;1.40;;;;;;;7.68;52.90;101915.50;10291527;28;20194;-82
2022/11/11 07:58:32;;;;;;;4.47;1.20;;;;;;;7.78;52.52;101927.84;10281774;28;20190;-82
2022/11/11 08:04:13;;;;;;;3.50;1.70;;;;;;;8.14;51.54;101923.13;10276179;28;20246;-82
2022/11/11 08:09:53;;;;;;;2.17;1.03;;;;;;;8.13;51.04;101936.31;10293949;28;20236;-81
2022/11/11 08:15:35;;;;;;;1.70;1.00;;;;;;;7.96;51.73;101927.34;10280715;28;20198;-82
2022/11/11 08:21:15;;;;;;;1.60;1.10;;;;;;;7.93;51.49;101944.72;10303458;28;20230;-82
2022/11/11 08:26:56;;;;;;;2.40;1.50;;;;;;;8.24;50.65;101940.81;10299729;28;20257;-82
2022/11/11 08:32:37;;;;;;;2.23;1.00;;;;;;;8.17;50.84;101929.03;10298050;28;20206;-82
2022/11/11 08:38:17;;;;;;;1.20;0.87;;;;;;;8.41;50.12;101932.94;10290589;28;20199;-83
2022/11/11 08:43:59;;;;;;;1.97;1.07;;;;;;;9.18;48.50;101928.00;10289478;28;20254;-83
2022/11/11 08:49:40;;;;;;;3.43;1.07;;;;;;;8.85;48.81;101923.91;10291342;28;20222;-83
2022/11/11 08:55:20;;;;;;;2.03;1.20;;;;;;;8.96;48.45;101934.00;10290223;28;20191;-83
2022/11/11 09:01:02;;;;;;;0.83;0.70;;;;;;;9.46;47.48;101937.72;10302912;28;20198;-83
2022/11/11 09:06:44;;;;;;;2.20;0.80;;;;;;;9.98;45.89;101936.31;10291028;28;20261;-83
2022/11/11 09:12:25;;;;;;;2.80;0.90;;;;;;;9.61;46.83;101942.44;10297730;28;20637;-83
2022/11/11 09:18:05;;;;;;;1.60;0.77;;;;;;;9.69;46.81;101953.94;10297481;28;20203;-83
2022/11/11 09:23:46;;;;;;;2.87;1.07;;;;;;;9.97;45.93;101957.16;10296855;28;20257;-83
2022/11/11 09:29:26;;;;;;;1.60;0.83;;;;;;;10.16;45.80;101958.16;10292611;28;20207;-83
2022/11/11 09:35:07;;;;;;;3.43;1.00;;;;;;;9.95;46.97;101967.88;10268899;28;20200;-83
2022/11/11 09:40:53;;;;;;;1.53;0.83;;;;;;;10.62;44.96;101966.25;10274411;28;20851;-83
2022/11/11 09:46:53;;;;;;;3.37;0.77;;;;;;;9.90;46.65;101967.94;10305410;28;20547;-84
2022/11/11 09:52:40;;;;;;;1.13;0.60;;;;;;;9.65;47.12;101983.00;10262234;28;20202;-83
2022/11/11 09:58:46;;;;;;;2.10;1.20;;;;;;;10.53;45.69;101988.56;10270897;28;20207;-84
2022/11/11 10:04:39;;;;;;;1.53;0.97;;;;;;;10.45;46.52;101987.22;10279328;28;20255;-83
2022/11/11 10:10:29;;;;;;;1.07;0.73;;;;;;;9.98;46.70;101995.47;10300328;28;20212;-83
2022/11/11 10:16:34;;;;;;;1.70;0.80;;;;;;;10.52;45.85;101987.75;10281930;28;20476;-83
2022/11/11 10:22:26;;;;;;;2.33;1.03;;;;;;;10.23;45.89;101995.28;10304107;28;20234;-82
2022/11/11 10:28:13;;;;;;;2.30;0.90;;;;;;;11.24;44.65;101994.34;10300163;28;20199;-83
2022/11/11 10:33:58;;;;;;;4.37;1.00;;;;;;;10.37;46.22;102007.59;10309457;28;20218;-83
2022/11/11 10:39:44;;;;;;;3.55;0.90;;;;;;;11.12;44.31;102002.41;10269062;28;20230;-83
2022/11/11 10:45:30;;;;;;;1.57;0.53;;;;;;;11.17;44.02;102004.34;10305710;28;20229;-83
2022/11/11 10:51:11;;;;;;;1.98;0.40;;;;;;;11.30;43.51;102009.25;10315539;28;20198;-83
2022/11/11 10:57:00;;;;;;;1.85;0.60;;;;;;;10.95;44.70;102007.69;10258967;28;20491;-82
2022/11/11 11:02:52;;;;;;;2.10;0.60;;;;;;;11.30;43.37;102005.59;10285717;28;20207;-81
2022/11/11 11:08:40;;;;;;;2.00;0.70;;;;;;;11.16;43.49;101997.84;10308687;28;20230;-82
2022/11/11 11:14:28;;;;;;;2.53;0.63;;;;;;;11.39;43.40;101986.84;10293286;28;20195;-82
2022/11/11 11:20:15;;;;;;;2.47;0.50;;;;;;;11.57;42.98;101986.94;10297987;28;20206;-82
2022/11/11 11:25:55;;;;;;;2.03;0.73;;;;;;;12.12;42.60;101975.16;10284963;28;20226;-82
2022/11/11 11:31:38;;;;;;;3.50;0.50;;;;;;;12.18;40.89;101962.59;10304725;28;20477;-82
2022/11/11 11:37:21;;;;;;;1.52;0.50;;;;;;;11.91;41.63;101968.94;10270917;28;20187;-82
2022/11/11 11:43:23;;;;;;;0.80;0.50;;;;;;;12.55;39.37;101964.53;10303723;28;20193;-82
2022/11/11 11:49:25;;;;;;;0.70;0.40;;;;;;;12.43;39.25;101955.72;10268220;28;20198;-81
2022/11/11 11:55:21;;;;;;;0.98;0.45;;;;;;;12.28;38.66;101949.13;10278495;28;20517;-82
2022/11/11 12:01:23;;;;;;;1.23;0.43;;;;;;;12.66;38.23;101941.41;10294894;28;20473;-81
2022/11/11 12:07:27;;;;;;;0.80;0.20;;;;;;;13.08;36.14;101935.81;10280929;28;20242;-81
2022/11/11 12:13:17;;;;;;;1.17;0.40;;;;;;;12.35;37.10;101943.09;10298155;28;20206;-81
2022/11/11 12:19:36;;;;;;;1.53;0.23;;;;;;;12.60;36.99;101941.84;10304593;28;20202;-82
2022/11/11 12:25:35;;;;;;;2.70;0.20;;;;;;;12.34;37.52;101944.25;10301795;28;20227;-81
2022/11/11 12:31:42;;;;;;;1.15;0.10;;;;;;;12.58;37.15;101941.31;10294622;28;20571;-82
2022/11/11 12:37:47;;;;;;;1.45;0.35;;;;;;;12.76;36.64;101942.41;10304564;28;20480;-82
2022/11/11 12:43:49;;;;;;;1.57;0.30;;;;;;;13.08;34.88;101931.00;10309025;28;20206;-82
2022/11/11 12:49:48;;;;;;;1.00;0.20;;;;;;;13.42;35.14;101924.13;10280698;28;20202;-82
2022/11/11 12:56:08;;;;;;;2.53;0.37;;;;;;;12.96;35.12;101928.69;10293252;28;20199;-82
2022/11/11 13:01:55;;;;;;;1.10;0.47;;;;;;;13.21;34.88;101918.03;10301135;28;20199;-82
2022/11/11 13:07:41;;;;;;;2.05;0.50;;;;;;;13.34;35.15;101918.00;10295031;28;20218;-82
2022/11/11 13:13:50;;;;;;;2.35;0.43;;;;;;;13.62;35.05;101915.97;10292060;28;20202;-83
2022/11/11 13:19:43;;;;;;;3.65;0.40;;;;;;;13.44;34.95;101916.09;10308535;28;20226;-83
2022/11/11 13:25:27;;;;;;;1.48;0.30;;;;;;;13.74;35.57;101919.09;10257243;28;21535;-82
2022/11/11 13:31:19;;;;;;;1.08;0.47;;;;;;;13.78;35.32;101916.47;10281682;28;20202;-83
2022/11/11 13:37:02;;;;;;;1.90;0.30;;;;;;;13.36;36.31;101914.88;10305780;28;20232;-82
2022/11/11 13:42:47;;;;;;;1.65;0.30;;;;;;;12.64;37.00;101914.63;10287441;28;20202;-82
2022/11/11 13:48:31;;;;;;;2.05;0.50;;;;;;;13.33;36.57;101910.69;10300844;28;20198;-82
2022/11/11 13:54:41;;;;;;;1.40;0.50;;;;;;;13.48;37.00;101922.81;10285544;28;20198;-83
2022/11/11 14:00:23;;;;;;;1.60;0.90;;;;;;;12.56;38.70;101923.78;10301627;28;20199;-82
2022/11/11 14:06:13;;;;;;;1.15;0.85;;;;;;;12.50;38.67;101923.06;10279298;28;20226;-81
2022/11/11 14:12:20;;;;;;;0.93;0.45;;;;;;;12.45;38.76;101923.16;10307215;28;20199;-82
2022/11/11 14:18:03;;;;;;;4.40;0.75;;;;;;;12.02;39.51;101944.19;10281054;28;20194;-81
2022/11/11 14:23:43;;;;;;;1.17;0.60;;;;;;;12.27;38.98;101938.97;10293716;28;20229;-82
2022/11/11 14:29:33;;;;;;;2.93;0.60;;;;;;;11.69;40.08;101932.00;10275490;28;20196;-82
2022/11/11 14:35:32;;;;;;;3.15;0.70;;;;;;;12.40;38.83;101943.03;10271798;28;20198;-82
2022/11/11 14:41:40;;;;;;;2.63;1.00;;;;;;;12.31;39.74;101950.50;10296494;28;20587;-82
2022/11/11 14:47:23;;;;;;;2.20;0.90;;;;;;;12.20;39.61;101946.16;10296707;28;20266;-82
2022/11/11 14:53:12;;;;;;;1.70;0.80;;;;;;;12.35;39.47;101945.91;10297635;28;20198;-82
2022/11/11 14:59:04;;;;;;;3.73;1.20;;;;;;;12.05;40.77;101946.41;10281784;28;20614;-81
2022/11/11 15:04:46;;;;;;;3.50;0.68;;;;;;;11.68;41.00;101950.91;10281904;28;20221;-81
2022/11/11 15:10:48;;;;;;;1.13;0.65;;;;;;;12.02;39.79;101947.84;10279212;28;20204;-81
2022/11/11 15:16:55;;;;;;;2.20;0.80;;;;;;;11.78;40.54;101958.41;10301219;28;20457;-82
2022/11/11 15:23:13;;;;;;;2.37;0.63;;;;;;;11.64;40.57;101961.13;10289330;28;20226;-82
2022/11/11 15:29:13;;;;;;;3.10;0.90;;;;;;;11.73;40.79;101956.50;10302681;28;20194;-80
2022/11/11 15:35:08;;;;;;;4.38;2.60;;;;;;;11.92;40.93;101954.50;10285505;28;20194;-81
2022/11/11 15:40:52;;;;;;;2.90;1.63;;;;;;;11.48;41.88;101965.25;10287890;28;20210;-81
2022/11/11 15:46:37;;;;;;;1.63;0.77;;;;;;;11.11;43.44;101961.22;10267633;28;20247;-82
2022/11/11 15:52:22;;;;;;;1.20;0.70;;;;;;;10.80;44.38;101962.69;10278615;28;20536;-82
2022/11/11 15:58:30;;;;;;;5.03;1.30;;;;;;;10.53;45.06;101961.22;10298781;28;20452;-83
2022/11/11 16:04:19;;;;;;;7.70;3.60;;;;;;;10.04;46.95;101963.34;10289295;28;20209;-84
2022/11/11 16:10:07;;;;;;;6.00;3.67;;;;;;;10.09;46.97;101964.13;10270547;28;20477;-82
2022/11/11 16:15:56;;;;;;;4.83;3.43;;;;;;;10.17;46.81;101962.66;10255523;28;20222;-81
2022/11/11 16:21:47;;;;;;;20.40;10.57;;;;;;;9.68;48.42;101963.53;10279914;28;20258;-82
2022/11/11 16:27:30;;;;;;;15.30;8.53;;;;;;;9.47;48.64;101964.75;10278551;28;20285;-81
2022/11/11 16:33:27;;;;;;;19.97;7.30;;;;;;;9.42;49.04;101964.75;10252901;28;20583;-82
2022/11/11 16:39:26;;;;;;;12.90;6.20;;;;;;;8.79;50.54;101959.63;10300678;28;20225;-82
2022/11/11 16:45:18;;;;;;;8.23;4.63;;;;;;;8.60;50.97;101949.22;10295667;28;20250;-82
2022/11/11 16:51:27;;;;;;;8.70;3.73;;;;;;;8.98;50.13;101948.63;10290200;28;20642;-81
2022/11/11 16:57:07;;;;;;;8.67;4.83;;;;;;;8.99;50.00;101953.13;10286202;28;20234;-82
2022/11/11 17:03:24;;;;;;;11.27;4.50;;;;;;;8.68;51.02;101951.50;10290036;28;20524;-83
2022/11/11 17:09:25;;;;;;;14.27;5.73;;;;;;;8.56;51.12;101942.47;10272544;28;20283;-82
2022/11/11 17:15:08;;;;;;;15.33;7.00;;;;;;;8.44;52.08;101940.81;10293613;28;20229;-82
2022/11/11 17:20:50;;;;;;;19.47;9.43;;;;;;;8.21;52.54;101951.78;10282058;28;20229;-82
2022/11/11 17:26:31;;;;;;;13.50;8.27;;;;;;;8.41;52.26;101947.00;10290425;28;20249;-82
2022/11/11 17:32:12;;;;;;;12.90;7.70;;;;;;;8.10;53.63;101956.53;10305954;28;20615;-82
2022/11/11 17:37:52;;;;;;;12.90;8.33;;;;;;;7.84;53.50;101952.03;10279974;28;20615;-81
2022/11/11 17:43:33;;;;;;;14.33;8.63;;;;;;;8.19;52.76;101960.47;10294481;28;20242;-81
2022/11/11 17:49:16;;;;;;;15.50;8.97;;;;;;;7.68;53.87;101953.94;10262046;28;20250;-81
2022/11/11 17:54:56;;;;;;;21.10;13.77;;;;;;;7.57;53.85;101953.09;10298911;28;20634;-83
2022/11/11 18:00:37;;;;;;;16.77;11.17;;;;;;;7.47;54.54;101953.00;10298662;28;20326;-84
2022/11/11 18:06:17;;;;;;;17.60;10.80;;;;;;;7.70;53.85;101969.41;10262825;28;20313;-82
2022/11/11 18:11:58;;;;;;;14.43;9.30;;;;;;;7.22;54.58;101972.53;10266465;28;20238;-82
2022/11/11 18:17:39;;;;;;;16.97;10.93;;;;;;;7.72;53.37;101967.13;10277246;28;20227;-84
2022/11/11 18:23:19;;;;;;;16.33;10.40;;;;;;;7.26;54.32;101982.94;10271340;28;20646;-81
2022/11/11 18:29:00;;;;;;;24.00;14.23;;;;;;;7.54;53.47;101984.47;10289310;28;20639;-80
2022/11/11 18:34:40;;;;;;;31.13;16.50;;;;;;;7.16;54.78;101984.84;10270174;28;20286;-82
2022/11/11 18:40:21;;;;;;;28.00;16.27;;;;;;;7.05;55.14;101994.31;10283920;28;20793;-83
2022/11/11 18:46:07;;;;;;;31.77;17.30;;;;;;;6.89;55.80;101999.81;10287878;28;20300;-82
2022/11/11 18:51:49;;;;;;;22.87;15.57;;;;;;;6.72;55.86;101996.34;10252581;28;20283;-84
2022/11/11 18:57:31;;;;;;;31.83;18.43;;;;;;;6.44;56.56;101993.88;10258466;28;20636;-79
2022/11/11 19:03:12;;;;;;;27.93;16.93;;;;;;;6.62;56.22;101997.13;10292473;28;20594;-82
2022/11/11 19:09:05;;;;;;;19.30;14.23;;;;;;;6.71;55.20;101994.66;10296318;28;20281;-82
2022/11/11 19:14:46;;;;;;;19.03;12.10;;;;;;;6.98;55.00;102001.00;10269907;28;20610;-80
2022/11/11 19:20:26;;;;;;;18.73;11.73;;;;;;;6.56;55.17;102014.13;10290842;28;20259;-83
2022/11/11 19:26:07;;;;;;;15.60;10.27;;;;;;;6.27;56.73;102022.84;10272709;28;20285;-80
2022/11/11 19:31:48;;;;;;;14.80;8.27;;;;;;;6.73;55.24;102020.44;10275965;28;20265;-81
2022/11/11 19:37:28;;;;;;;15.80;8.83;;;;;;;6.41;55.77;102023.25;10284061;28;20238;-81
2022/11/11 19:43:09;;;;;;;9.90;7.40;;;;;;;6.40;55.79;102017.94;10268829;28;20229;-80
2022/11/11 19:48:53;;;;;;;11.43;6.77;;;;;;;6.45;55.31;102017.97;10266634;28;20246;-82
2022/11/11 19:54:34;;;;;;;9.83;6.50;;;;;;;6.23;56.58;102016.06;10270939;28;20242;-80
2022/11/11 20:00:15;;;;;;;12.30;6.90;;;;;;;6.61;54.70;102015.03;10259979;28;20242;-83
2022/11/11 20:05:55;;;;;;;11.17;7.00;;;;;;;6.43;55.08;102020.19;10263973;28;20254;-81
2022/11/11 20:11:40;;;;;;;10.93;7.73;;;;;;;6.75;54.22;102017.38;10276581;28;20222;-80
2022/11/11 20:17:20;;;;;;;13.47;7.90;;;;;;;6.80;53.99;101998.63;10274999;28;20238;-81
2022/11/11 20:23:04;;;;;;;23.77;13.83;;;;;;;6.65;54.19;102007.78;10262227;28;20258;-81
2022/11/11 20:28:45;;;;;;;18.03;11.73;;;;;;;6.60;54.33;102004.09;10274434;28;20621;-80
2022/11/11 20:34:27;;;;;;;7.73;5.50;;;;;;;6.71;53.82;102000.25;10278310;28;20254;-81
2022/11/11 20:40:09;;;;;;;7.10;5.40;;;;;;;6.73;53.66;102011.19;10268848;28;20226;-81
2022/11/11 20:45:50;;;;;;;8.47;5.33;;;;;;;6.47;54.48;102011.00;10250925;28;20241;-82
2022/11/11 20:51:30;;;;;;;7.20;5.23;;;;;;;6.62;53.86;102013.06;10275103;28;20234;-81
2022/11/11 20:57:13;;;;;;;6.93;4.80;;;;;;;6.78;53.26;102023.28;10262770;28;20225;-80
2022/11/11 21:02:53;;;;;;;6.53;4.37;;;;;;;6.57;53.96;102032.63;10275203;28;20634;-81
2022/11/11 21:08:36;;;;;;;7.30;4.77;;;;;;;6.70;54.02;102026.56;10292596;28;20254;-81
2022/11/11 21:14:16;;;;;;;8.23;5.77;;;;;;;6.58;54.31;102023.97;10295900;28;20233;-81
2022/11/11 21:19:57;;;;;;;8.80;6.07;;;;;;;6.50;54.77;102009.63;10303643;28;20207;-80
2022/11/11 21:25:38;;;;;;;8.70;6.37;;;;;;;5.78;56.11;102012.78;10281520;28;20258;-81
2022/11/11 21:31:21;;;;;;;9.30;6.73;;;;;;;5.80;56.09;102016.16;10305047;28;20206;-81
2022/11/11 21:37:02;;;;;;;13.17;9.03;;;;;;;5.90;55.45;102021.88;10297162;28;20198;-81
2022/11/11 21:42:43;;;;;;;12.57;8.57;;;;;;;5.59;56.89;102023.47;10302175;28;20214;-81
2022/11/11 21:48:23;;;;;;;14.23;9.37;;;;;;;5.77;55.55;102028.72;10318740;28;20226;-81
2022/11/11 21:54:06;;;;;;;13.53;8.40;;;;;;;6.11;55.18;102034.16;10301890;28;20203;-80
2022/11/11 21:59:48;;;;;;;12.47;7.77;;;;;;;5.63;55.90;102049.00;10289446;28;20202;-80
2022/11/11 22:05:28;;;;;;;15.30;9.63;;;;;;;5.28;57.53;102046.53;10284097;28;20619;-80
2022/11/11 22:11:12;;;;;;;50.80;36.87;;;;;;;5.31;58.13;102041.28;10288646;28;20194;-81
2022/11/11 22:16:53;;;;;;;43.17;30.80;;;;;;;5.05;57.37;102048.44;10302283;28;20261;-81
2022/11/11 22:22:33;;;;;;;27.47;19.57;;;;;;;5.38;56.81;102041.94;10281817;28;20297;-80
2022/11/11 22:28:14;;;;;;;19.83;15.80;;;;;;;4.75;58.56;102050.75;10287207;28;20283;-81
2022/11/11 22:34:01;;;;;;;16.37;13.70;;;;;;;5.17;57.91;102045.56;10297373;28;20339;-80
2022/11/11 22:39:42;;;;;;;15.20;11.97;;;;;;;5.00;58.18;102039.97;10289535;28;20251;-81
2022/11/11 22:45:23;;;;;;;12.80;9.03;;;;;;;4.73;58.31;102050.16;10276978;28;20206;-80
2022/11/11 22:51:14;;;;;;;11.67;8.53;;;;;;;4.99;57.69;102051.38;10282082;28;20207;-80
2022/11/11 22:56:54;;;;;;;11.43;7.80;;;;;;;5.07;57.73;102056.56;10293695;28;20203;-80
2022/11/11 23:02:35;;;;;;;10.87;8.00;;;;;;;5.02;57.41;102057.31;10298467;28;20207;-81
2022/11/11 23:08:15;;;;;;;11.60;6.97;;;;;;;4.73;58.42;102055.72;10279804;28;20266;-80
2022/11/11 23:14:04;;;;;;;9.97;6.90;;;;;;;4.72;58.66;102054.88;10284149;28;20484;-80
2022/11/11 23:19:46;;;;;;;13.13;7.47;;;;;;;4.79;57.99;102044.41;10285312;28;20221;-80
2022/11/11 23:25:26;;;;;;;11.73;7.60;;;;;;;4.70;58.10;102043.16;10285406;28;20508;-80
2022/11/11 23:31:19;;;;;;;10.93;7.57;;;;;;;4.83;57.55;102048.38;10284958;28;20607;-81
2022/11/11 23:36:59;;;;;;;9.17;6.63;;;;;;;4.43;58.29;102056.09;10285231;28;20195;-81
2022/11/11 23:42:39;;;;;;;7.70;6.47;;;;;;;4.68;57.90;102048.13;10277283;28;20199;-80
2022/11/11 23:48:21;;;;;;;7.30;6.60;;;;;;;4.65;57.55;102043.06;10280706;28;20501;-80
2022/11/11 23:54:02;;;;;;;7.27;6.53;;;;;;;4.48;58.76;102059.78;10292870;28;20615;-80
2022/11/11 23:59:43;;;;;;;7.37;6.33;;;;;;;4.24;59.50;102062.97;10291629;28;20190;-80
